Time;durP1;ratioP1;P1;durP2;ratioP2;P2;SDS_P1;SDS_P2;PMS_P1;PMS_P2;Temp;Humidity;BMP_temperature;BMP_pressure;BME280_temperature;BME280_humidity;BME280_pressure;Samples;Min_cycle;Max_cycle;Signal;HPM_P1;HPM_P2
2023/09/07 00:00:51;;;;;;;14.10;7.30;;;;;;;23.58;50.28;101619.00;4971619;28;20049;-80
2023/09/07 00:03:18;;;;;;;9.88;6.75;;;;;;;23.61;50.49;101624.00;4979315;28;20062;-76
2023/09/07 00:05:45;;;;;;;12.82;7.00;;;;;;;23.59;50.38;101620.69;4975818;28;20042;-80
2023/09/07 00:08:12;;;;;;;7.82;6.60;;;;;;;23.30;50.57;101577.50;4978946;28;20613;-79
2023/09/07 00:10:38;;;;;;;11.45;7.20;;;;;;;23.44;50.84;101600.97;4977675;28;20111;-82
2023/09/07 00:13:07;;;;;;;12.55;7.30;;;;;;;23.24;50.58;101560.19;4985543;28;20054;-82
2023/09/07 00:15:38;;;;;;;14.82;6.90;;;;;;;23.50;51.00;101602.03;4985857;28;20391;-81
2023/09/07 00:18:08;;;;;;;13.88;7.00;;;;;;;23.41;51.36;101598.66;4972177;28;20333;-82
2023/09/07 00:20:35;;;;;;;10.55;7.47;;;;;;;22.98;50.81;101531.00;4976288;28;20050;-78
2023/09/07 00:23:09;;;;;;;10.88;7.13;;;;;;;23.44;51.37;101606.38;4972584;28;20054;-81
2023/09/07 00:25:37;;;;;;;14.02;8.35;;;;;;;23.41;51.09;101604.06;4977129;28;20120;-80
2023/09/07 00:28:04;;;;;;;9.75;7.10;;;;;;;23.33;51.01;101582.56;4975558;28;20148;-79
2023/09/07 00:30:40;;;;;;;9.35;6.97;;;;;;;23.46;51.07;101604.31;4974836;28;20252;-79
2023/09/07 00:33:15;;;;;;;11.90;7.60;;;;;;;23.35;51.18;101586.72;4968525;28;20277;-81
2023/09/07 00:35:44;;;;;;;11.43;6.75;;;;;;;23.41;50.87;101591.34;4975212;28;20126;-81
2023/09/07 00:38:11;;;;;;;14.63;7.75;;;;;;;23.35;51.12;101591.28;4970546;28;20343;-80
2023/09/07 00:40:47;;;;;;;10.07;7.07;;;;;;;23.39;51.34;101595.28;4959499;28;20073;-81
2023/09/07 00:43:16;;;;;;;11.77;7.93;;;;;;;23.38;51.28;101593.63;4974468;28;20041;-77
2023/09/07 00:45:43;;;;;;;14.85;7.82;;;;;;;23.38;51.27;101596.34;4972811;28;20053;-81
2023/09/07 00:48:13;;;;;;;10.25;7.18;;;;;;;23.41;51.23;101601.34;4970259;28;20138;-79
2023/09/07 00:50:43;;;;;;;12.32;6.50;;;;;;;23.22;51.05;101582.03;4933462;28;20058;-80
2023/09/07 00:53:14;;;;;;;9.32;6.95;;;;;;;23.31;50.99;101592.75;4983021;28;20049;-80
2023/09/07 00:55:45;;;;;;;14.20;7.33;;;;;;;22.94;51.03;101540.53;4975551;28;20062;-80
2023/09/07 00:58:12;;;;;;;10.43;7.72;;;;;;;21.98;51.18;101395.59;4982679;28;20050;-79
2023/09/07 01:00:40;;;;;;;10.70;7.40;;;;;;;22.22;51.76;101444.13;4977318;28;20144;-79
2023/09/07 01:03:07;;;;;;;16.58;7.47;;;;;;;23.23;51.61;101605.41;4989626;28;20049;-80
2023/09/07 01:05:49;;;;;;;11.65;7.57;;;;;;;23.24;52.75;101609.78;4982379;28;20049;-78
2023/09/07 01:08:28;;;;;;;16.20;8.10;;;;;;;23.15;51.84;101600.09;5001179;28;20115;-78
2023/09/07 01:10:56;;;;;;;17.98;8.77;;;;;;;22.92;52.29;101570.50;5006652;28;20046;-78
2023/09/07 01:13:22;;;;;;;12.73;8.65;;;;;;;23.29;53.17;101613.78;4968370;28;20089;-80
2023/09/07 01:15:50;;;;;;;27.55;8.68;;;;;;;23.29;51.91;101624.59;4982360;28;20340;-79
2023/09/07 01:18:17;;;;;;;14.52;7.97;;;;;;;;;;4997162;28;20099;-80
2023/09/07 01:20:53;;;;;;;15.05;7.85;;;;;;;23.24;51.89;101623.31;4999442;28;20050;-80
2023/09/07 01:23:20;;;;;;;14.65;7.32;;;;;;;23.19;51.71;101617.66;4988318;28;20100;-78
2023/09/07 01:25:48;;;;;;;14.85;7.32;;;;;;;23.20;51.38;101622.00;4989476;28;20496;-79
2023/09/07 01:28:17;;;;;;;12.43;7.88;;;;;;;23.04;51.10;101596.06;5002959;28;20493;-80
2023/09/07 01:30:45;;;;;;;12.23;7.85;;;;;;;23.13;52.40;101631.97;4981020;28;20049;-80
2023/09/07 01:33:12;;;;;;;16.55;8.15;;;;;;;22.92;52.12;101596.75;4970917;28;20081;-80
2023/09/07 01:35:40;;;;;;;12.40;7.75;;;;;;;22.94;52.02;101621.78;4971482;28;20123;-81
2023/09/07 01:38:07;;;;;;;14.30;8.35;;;;;;;22.73;52.27;101593.66;4981767;28;20437;-76
2023/09/07 01:40:34;;;;;;;21.80;8.55;;;;;;;22.54;52.42;101576.16;4980108;28;20406;-79
2023/09/07 01:43:01;;;;;;;12.98;7.60;;;;;;;22.51;52.81;101589.25;4969405;28;20364;-80
2023/09/07 01:45:27;;;;;;;11.68;7.28;;;;;;;22.38;53.07;101565.59;4984224;28;20099;-77
2023/09/07 01:47:54;;;;;;;12.00;7.57;;;;;;;22.67;52.88;101610.66;4985613;28;20049;-78
2023/09/07 01:50:31;;;;;;;10.63;7.30;;;;;;;22.50;53.23;101574.03;4984601;28;20169;-79
2023/09/07 01:53:04;;;;;;;13.75;7.97;;;;;;;22.65;52.84;101601.03;4957237;28;20496;-81
2023/09/07 01:55:35;;;;;;;11.20;7.80;;;;;;;22.60;52.82;101580.00;4947771;28;20446;-80
2023/09/07 01:58:02;;;;;;;16.27;7.75;;;;;;;22.72;52.49;101601.94;4944688;28;20042;-80
2023/09/07 02:00:29;;;;;;;14.35;7.80;;;;;;;22.61;52.76;101581.66;4991790;28;20053;-81
2023/09/07 02:02:58;;;;;;;9.27;7.80;;;;;;;22.59;52.59;101581.00;4970805;28;20315;-80
2023/09/07 02:05:32;;;;;;;11.00;7.07;;;;;;;22.74;52.43;101584.47;4986155;28;20176;-79
2023/09/07 02:07:59;;;;;;;9.82;7.45;;;;;;;22.77;52.26;101573.28;5008083;28;20076;-81
2023/09/07 02:10:26;;;;;;;11.48;7.60;;;;;;;22.52;52.31;101529.50;4993855;28;20141;-80
2023/09/07 02:12:59;;;;;;;12.10;7.50;;;;;;;22.74;51.88;101562.00;4962419;28;20296;-80
2023/09/07 02:15:42;;;;;;;8.20;7.22;;;;;;;22.96;52.61;101587.19;4986285;28;20131;-81
2023/09/07 02:18:15;;;;;;;15.75;8.40;;;;;;;23.06;52.20;101585.03;4946858;28;20337;-80
2023/09/07 02:20:42;;;;;;;12.90;7.80;;;;;;;22.99;51.09;101576.03;4970790;28;20398;-82
2023/09/07 02:23:10;;;;;;;12.05;7.40;;;;;;;22.89;51.55;101559.22;4989012;28;20604;-80
2023/09/07 02:25:37;;;;;;;10.68;7.90;;;;;;;22.93;50.97;101583.00;4979545;28;20049;-81
2023/09/07 02:28:04;;;;;;;9.70;7.20;;;;;;;22.60;50.46;101525.88;4980948;28;20054;-79
2023/09/07 02:30:31;;;;;;;9.40;7.43;;;;;;;22.48;50.68;101506.59;4974860;28;20057;-80
2023/09/07 02:33:00;;;;;;;12.35;7.80;;;;;;;22.92;50.62;101585.94;4992006;28;20053;-78
2023/09/07 02:35:26;;;;;;;9.52;7.53;;;;;;;22.87;50.41;101578.38;4974180;28;20516;-80
2023/09/07 02:37:56;;;;;;;8.40;7.15;;;;;;;22.61;50.30;101535.66;4979440;28;20053;-80
2023/09/07 02:40:23;;;;;;;14.15;7.13;;;;;;;22.81;50.62;101579.97;4984262;28;20049;-80
2023/09/07 02:42:53;;;;;;;17.88;7.97;;;;;;;22.86;50.95;101592.94;4965719;28;20501;-81
2023/09/07 02:45:24;;;;;;;10.32;7.60;;;;;;;22.84;52.46;101589.56;4967513;28;20107;-80
2023/09/07 02:47:53;;;;;;;;;;;;;;;22.78;54.24;101580.38;4963231;28;20089;-81
2023/09/07 02:50:32;;;;;;;8.63;6.65;;;;;;;22.90;50.73;101588.81;4960948;28;20347;-80
2023/09/07 02:52:59;;;;;;;;;;;;;;;22.86;50.95;101597.50;4980179;28;20124;-80
2023/09/07 02:55:27;;;;;;;20.60;8.00;;;;;;;22.75;50.46;101575.34;4978814;28;20392;-81
2023/09/07 02:57:59;;;;;;;10.35;7.90;;;;;;;22.79;51.06;101603.72;4980239;28;20591;-77
2023/09/07 03:00:26;;;;;;;17.20;8.77;;;;;;;22.61;51.09;101577.06;4963345;28;20378;-79
2023/09/07 03:02:53;;;;;;;10.75;7.75;;;;;;;22.71;51.07;101593.00;4953578;28;20552;-77
2023/09/07 03:05:30;;;;;;;13.90;7.63;;;;;;;22.23;51.01;101511.53;4964696;28;20556;-79
2023/09/07 03:07:57;;;;;;;8.30;7.38;;;;;;;22.62;51.16;101583.31;4977611;28;20536;-80
2023/09/07 03:10:24;;;;;;;13.45;8.27;;;;;;;22.66;51.23;101587.31;4986220;28;20412;-78
2023/09/07 03:12:52;;;;;;;27.90;8.52;;;;;;;22.67;51.15;101594.44;4976691;28;20045;-79
2023/09/07 03:15:19;;;;;;;11.07;7.65;;;;;;;22.65;51.26;101596.50;4963903;28;20050;-79
2023/09/07 03:17:46;;;;;;;10.80;7.38;;;;;;;22.39;51.55;101576.22;4971496;28;20333;-81
2023/09/07 03:20:19;;;;;;;12.70;8.55;;;;;;;22.52;51.43;101585.50;4977530;28;20559;-80
2023/09/07 03:22:46;;;;;;;7.97;7.15;;;;;;;22.55;51.96;101601.34;4976455;28;20178;-77
2023/09/07 03:25:14;;;;;;;11.18;7.63;;;;;;;22.60;51.75;101593.53;4975345;28;20054;-79
2023/09/07 03:27:41;;;;;;;13.75;7.85;;;;;;;22.49;51.69;101588.59;4983577;28;20054;-78
2023/09/07 03:30:09;;;;;;;10.40;7.38;;;;;;;22.56;51.63;101592.22;4971662;28;20128;-80
2023/09/07 03:32:36;;;;;;;11.73;8.07;;;;;;;22.34;51.86;101564.31;4983579;28;20104;-80
2023/09/07 03:35:09;;;;;;;14.18;8.52;;;;;;;22.62;52.06;101607.66;4981275;28;20129;-81
2023/09/07 03:37:38;;;;;;;14.73;8.35;;;;;;;21.91;51.76;101494.69;4978428;28;20057;-79
2023/09/07 03:40:11;;;;;;;9.02;7.85;;;;;;;22.39;53.42;101559.97;4968634;28;20774;-81
2023/09/07 03:42:39;;;;;;;12.90;7.20;;;;;;;22.49;53.64;101572.38;4976388;28;20084;-81
2023/09/07 03:45:07;;;;;;;13.20;8.05;;;;;;;22.67;53.87;101596.28;4970097;28;20513;-80
2023/09/07 03:47:34;;;;;;;12.38;8.52;;;;;;;22.58;53.41;101563.09;4969432;28;20061;-80
2023/09/07 03:50:04;;;;;;;14.40;8.57;;;;;;;22.71;51.65;101595.69;4978921;28;20314;-79
2023/09/07 03:52:31;;;;;;;11.82;7.90;;;;;;;22.70;51.80;101604.88;4977576;28;20054;-80
2023/09/07 03:55:08;;;;;;;13.45;8.57;;;;;;;22.42;51.55;101579.56;4976969;28;20054;-81
2023/09/07 03:57:40;;;;;;;11.45;8.65;;;;;;;22.57;51.93;101615.53;4978249;28;20464;-81
2023/09/07 04:00:09;;;;;;;;;;;;;;;22.46;51.98;101621.47;4969372;28;20049;-81
2023/09/07 04:02:41;;;;;;;13.98;8.60;;;;;;;22.49;52.33;101623.78;4953025;28;20285;-81
2023/09/07 04:05:10;;;;;;;10.90;7.70;;;;;;;21.57;52.25;101484.50;4965323;28;20308;-79
2023/09/07 04:07:38;;;;;;;15.68;8.43;;;;;;;22.34;51.78;101616.53;4974716;28;20153;-80
2023/09/07 04:10:05;;;;;;;13.05;8.07;;;;;;;22.29;51.95;101613.56;4970691;28;20062;-81
2023/09/07 04:12:33;;;;;;;12.32;8.18;;;;;;;22.25;53.05;101595.19;4975090;28;20422;-80
2023/09/07 04:15:03;;;;;;;14.18;8.27;;;;;;;22.35;54.12;101612.78;4968742;28;20054;-80
2023/09/07 04:17:39;;;;;;;13.60;8.57;;;;;;;22.33;52.72;101609.44;4983804;28;20053;-82
2023/09/07 04:20:12;;;;;;;22.05;10.02;;;;;;;22.40;51.99;101615.78;4978196;28;20049;-80
2023/09/07 04:22:47;;;;;;;15.43;9.02;;;;;;;22.21;52.16;101608.25;4972634;28;20359;-80
2023/09/07 04:25:14;;;;;;;12.30;8.85;;;;;;;21.70;52.84;101527.06;4980367;28;20046;-82
2023/09/07 04:27:44;;;;;;;12.80;8.95;;;;;;;22.05;52.12;101574.09;4983425;28;20454;-80
2023/09/07 04:30:13;;;;;;;13.15;8.27;;;;;;;22.14;53.69;101588.38;4957020;28;20245;-81
2023/09/07 04:32:39;;;;;;;16.58;10.45;;;;;;;22.37;52.66;101616.13;4978763;28;20054;-80
2023/09/07 04:35:09;;;;;;;19.40;10.40;;;;;;;22.35;52.22;101628.19;4980439;28;20375;-80
2023/09/07 04:37:36;;;;;;;13.07;10.00;;;;;;;22.25;52.45;101627.63;4974280;28;20060;-81
2023/09/07 04:40:08;;;;;;;18.48;9.02;;;;;;;22.17;52.36;101621.28;4971107;28;20353;-80
2023/09/07 04:42:35;;;;;;;;;;;;;;;22.10;52.74;101628.47;4978547;28;20271;-80
2023/09/07 04:45:03;;;;;;;13.30;9.70;;;;;;;22.11;52.41;101618.47;4981168;28;20254;-80
2023/09/07 04:47:30;;;;;;;18.42;9.77;;;;;;;22.06;53.09;101618.19;4975574;28;20124;-80
2023/09/07 04:49:57;;;;;;;14.20;10.25;;;;;;;21.81;53.02;101580.66;4978914;28;20046;-81
2023/09/07 04:52:30;;;;;;;16.23;10.65;;;;;;;21.93;52.77;101602.66;4962329;28;20518;-80
2023/09/07 04:55:01;;;;;;;18.88;9.90;;;;;;;22.02;52.76;101603.41;4960814;28;20062;-79
2023/09/07 04:57:30;;;;;;;15.00;10.35;;;;;;;21.41;53.36;101517.97;4966235;28;20104;-81
2023/09/07 04:59:57;;;;;;;23.63;11.50;;;;;;;22.16;53.16;101632.28;4973549;28;20197;-81
2023/09/07 05:02:25;;;;;;;16.13;9.63;;;;;;;22.07;54.22;101603.69;4982654;28;20702;-80
2023/09/07 05:04:52;;;;;;;14.15;10.15;;;;;;;21.69;53.57;101547.00;4963487;28;20078;-81
2023/09/07 05:07:19;;;;;;;16.88;11.10;;;;;;;22.27;53.71;101629.13;4972992;28;20489;-82
2023/09/07 05:09:47;;;;;;;17.60;11.60;;;;;;;22.38;53.80;101639.47;4980023;28;20574;-80
2023/09/07 05:12:14;;;;;;;14.40;9.95;;;;;;;22.16;53.32;101592.56;4979942;28;20141;-78
2023/09/07 05:14:43;;;;;;;16.80;11.63;;;;;;;21.88;53.10;101570.78;4971565;28;20125;-80
2023/09/07 05:17:11;;;;;;;21.75;11.18;;;;;;;22.20;53.75;101609.28;4977953;28;20049;-79
2023/09/07 05:19:38;;;;;;;16.20;11.35;;;;;;;22.31;53.00;101645.84;4983628;28;20416;-80
2023/09/07 05:22:07;;;;;;;12.95;11.23;;;;;;;22.14;53.57;101610.00;4974806;28;20129;-81
2023/09/07 05:24:34;;;;;;;20.95;12.02;;;;;;;22.26;54.18;101622.06;4976632;28;20632;-80
2023/09/07 05:27:03;;;;;;;19.77;10.90;;;;;;;22.39;53.23;101633.03;4981994;28;20522;-80
2023/09/07 05:29:35;;;;;;;16.83;11.75;;;;;;;22.37;53.10;101637.78;4950246;28;20058;-80
2023/09/07 05:32:13;;;;;;;15.27;10.70;;;;;;;22.39;53.38;101653.84;4956142;28;20073;-78
2023/09/07 05:34:42;;;;;;;18.38;11.48;;;;;;;22.22;53.15;101618.03;4942534;28;20471;-80
2023/09/07 05:37:20;;;;;;;17.13;10.15;;;;;;;22.02;53.01;101598.81;4943753;28;20479;-80
2023/09/07 05:39:55;;;;;;;21.58;10.95;;;;;;;22.31;53.36;101660.19;4945301;28;20239;-81
2023/09/07 05:42:25;;;;;;;23.95;11.00;;;;;;;22.34;53.35;101665.22;4935055;28;20391;-80
2023/09/07 05:44:53;;;;;;;20.42;11.38;;;;;;;22.33;53.47;101658.13;4933763;28;20203;-79
2023/09/07 05:47:39;;;;;;;15.95;10.90;;;;;;;22.23;53.60;101643.22;4970363;28;20046;-80
2023/09/07 05:50:07;;;;;;;23.88;11.48;;;;;;;22.30;53.27;101668.47;4987982;28;20866;-79
2023/09/07 05:52:33;;;;;;;13.27;9.55;;;;;;;22.15;54.17;101639.56;4988406;28;20045;-82
2023/09/07 05:55:00;;;;;;;16.10;9.93;;;;;;;22.25;53.95;101655.53;4987955;28;20305;-80
2023/09/07 05:57:28;;;;;;;15.38;10.13;;;;;;;22.51;54.33;101676.66;4986551;28;20053;-80
2023/09/07 05:59:54;;;;;;;15.90;11.73;;;;;;;22.39;53.32;101662.78;4979711;28;20061;-81
2023/09/07 06:02:23;;;;;;;21.63;12.32;;;;;;;22.19;53.18;101651.69;4992670;28;20056;-79
2023/09/07 06:04:50;;;;;;;20.63;11.43;;;;;;;21.91;53.69;101610.94;4994370;28;20076;-80
2023/09/07 06:07:20;;;;;;;15.07;10.13;;;;;;;22.22;54.04;101666.72;4993047;28;20045;-81
2023/09/07 06:09:47;;;;;;;16.15;10.90;;;;;;;22.36;53.48;101692.94;5005572;28;20530;-80
2023/09/07 06:12:14;;;;;;;16.67;10.57;;;;;;;22.27;53.55;101661.59;4982312;28;20103;-82
2023/09/07 06:14:41;;;;;;;16.42;11.88;;;;;;;22.37;52.92;101669.41;4985641;28;20362;-81
2023/09/07 06:17:08;;;;;;;18.80;11.70;;;;;;;22.27;53.88;101653.47;5006194;28;20041;-80
2023/09/07 06:19:35;;;;;;;22.45;11.48;;;;;;;22.49;53.15;101664.34;4983911;28;20049;-80
2023/09/07 06:22:02;;;;;;;16.05;10.45;;;;;;;22.21;53.39;101621.78;4986494;28;20947;-81
2023/09/07 06:24:29;;;;;;;25.75;13.43;;;;;;;22.34;52.91;101634.63;4982846;28;20084;-80
2023/09/07 06:27:03;;;;;;;19.33;11.25;;;;;;;22.44;53.73;101664.09;4995766;28;20136;-79
2023/09/07 06:29:30;;;;;;;24.08;12.80;;;;;;;22.53;53.31;101674.63;4987533;28;20079;-79
2023/09/07 06:31:58;;;;;;;18.98;12.70;;;;;;;22.36;53.13;101640.69;5010637;28;20509;-79
2023/09/07 06:34:31;;;;;;;16.58;12.10;;;;;;;22.61;53.31;101679.06;4957563;28;20046;-81
2023/09/07 06:36:58;;;;;;;20.75;11.57;;;;;;;22.70;53.40;101686.06;4985460;28;20598;-81
2023/09/07 06:39:25;;;;;;;21.92;12.85;;;;;;;22.63;52.81;101657.25;4969447;28;20091;-78
2023/09/07 06:41:52;;;;;;;29.77;12.35;;;;;;;22.81;52.99;101674.72;4985728;28;20065;-80
2023/09/07 06:44:20;;;;;;;17.23;10.75;;;;;;;22.66;52.50;101641.44;4984823;28;20428;-79
2023/09/07 06:46:47;;;;;;;19.00;12.80;;;;;;;23.00;52.06;101677.88;4981181;28;20149;-81
2023/09/07 06:49:19;;;;;;;28.25;13.02;;;;;;;22.72;52.55;101659.66;4950679;28;20084;-79
2023/09/07 06:51:46;;;;;;;22.45;13.27;;;;;;;22.83;52.50;101675.38;4993638;28;20144;-79
2023/09/07 06:54:16;;;;;;;17.20;10.95;;;;;;;22.98;53.00;101682.63;4974888;28;20053;-79
2023/09/07 06:56:47;;;;;;;18.38;12.27;;;;;;;23.03;52.54;101674.78;4972754;28;20477;-78
2023/09/07 06:59:17;;;;;;;23.38;12.88;;;;;;;23.13;52.57;101680.72;4991688;28;20473;-77
2023/09/07 07:01:44;;;;;;;20.33;11.65;;;;;;;22.87;53.12;101653.34;4984998;28;20440;-79
2023/09/07 07:04:10;;;;;;;22.42;14.18;;;;;;;23.12;52.30;101679.03;4979205;28;20453;-79
2023/09/07 07:06:37;;;;;;;23.85;14.25;;;;;;;22.97;52.47;101654.69;4979427;28;20136;-79
2023/09/07 07:09:05;;;;;;;24.08;14.60;;;;;;;22.91;52.77;101658.16;4981556;28;20054;-78
2023/09/07 07:11:39;;;;;;;22.27;13.13;;;;;;;23.17;52.44;101675.75;4975560;28;20053;-80
2023/09/07 07:14:05;;;;;;;20.73;14.18;;;;;;;23.20;52.93;101678.91;4972169;28;20437;-77
2023/09/07 07:16:32;;;;;;;26.20;14.20;;;;;;;23.43;52.27;101696.84;4976055;28;20057;-77
2023/09/07 07:18:59;;;;;;;20.40;13.05;;;;;;;23.27;52.71;101672.72;4979302;28;20049;-80
2023/09/07 07:21:26;;;;;;;22.90;13.73;;;;;;;23.34;52.71;101698.00;4960733;28;20057;-79
2023/09/07 07:23:54;;;;;;;17.48;11.73;;;;;;;23.36;53.07;101690.53;4968270;28;20069;-77
2023/09/07 07:26:20;;;;;;;26.08;14.98;;;;;;;23.24;53.10;101666.66;4974261;28;20091;-79
2023/09/07 07:28:50;;;;;;;24.83;14.00;;;;;;;23.56;52.94;101702.34;4966811;28;20060;-81
2023/09/07 07:31:17;;;;;;;19.05;13.00;;;;;;;23.41;53.94;101693.47;4976230;28;20519;-78
2023/09/07 07:33:50;;;;;;;21.02;13.57;;;;;;;23.52;53.48;101711.06;4968798;28;20048;-80
2023/09/07 07:36:17;;;;;;;25.67;14.55;;;;;;;23.53;53.61;101694.63;4972978;28;20053;-79
2023/09/07 07:38:44;;;;;;;15.98;11.25;;;;;;;23.71;54.38;101717.69;4972611;28;20160;-78
2023/09/07 07:41:11;;;;;;;29.40;15.27;;;;;;;23.48;54.05;101648.31;4970182;28;20595;-80
2023/09/07 07:43:46;;;;;;;25.90;15.43;;;;;;;23.74;54.05;101704.63;4941807;28;20354;-80
2023/09/07 07:46:19;;;;;;;26.35;15.93;;;;;;;23.82;53.87;101703.66;4960915;28;20460;-77
2023/09/07 07:48:48;;;;;;;24.35;14.40;;;;;;;23.86;54.16;101700.34;4961700;28;20060;-82
2023/09/07 07:51:19;;;;;;;25.52;15.20;;;;;;;23.50;54.77;101640.84;4977153;28;20053;-80
2023/09/07 07:53:46;;;;;;;17.30;11.05;;;;;;;23.89;54.80;101685.56;4961154;28;20437;-79
2023/09/07 07:56:23;;;;;;;28.92;16.10;;;;;;;24.01;54.64;101694.81;4965817;28;20062;-78
2023/09/07 07:58:49;;;;;;;25.38;15.43;;;;;;;23.79;55.17;101647.13;4968476;28;20085;-81
2023/09/07 08:01:23;;;;;;;31.05;14.75;;;;;;;23.93;54.99;101665.13;4967525;28;20058;-80
2023/09/07 08:03:52;;;;;;;30.60;16.02;;;;;;;23.83;54.64;101651.09;4976142;28;20450;-80
2023/09/07 08:06:22;;;;;;;23.58;14.30;;;;;;;24.02;55.04;101682.91;4962838;28;20077;-82
2023/09/07 08:08:50;;;;;;;17.13;10.68;;;;;;;24.20;55.24;101705.97;4974519;28;20146;-77
2023/09/07 08:11:21;;;;;;;10.52;8.80;;;;;;;24.25;55.96;101706.22;4968339;28;20077;-81
2023/09/07 08:13:48;;;;;;;34.33;17.92;;;;;;;24.24;55.02;101689.09;4973372;28;20356;-79
2023/09/07 08:16:15;;;;;;;26.80;17.35;;;;;;;24.30;55.17;101698.31;4961087;28;20258;-80
2023/09/07 08:18:50;;;;;;;24.17;14.15;;;;;;;24.29;56.02;101713.75;4958381;28;20053;-81
2023/09/07 08:21:21;;;;;;;34.65;17.50;;;;;;;24.16;55.94;101685.72;4950275;28;20576;-79
2023/09/07 08:23:52;;;;;;;28.92;15.65;;;;;;;24.29;56.15;101718.34;4970836;28;20053;-78
2023/09/07 08:26:24;;;;;;;29.27;16.73;;;;;;;24.29;55.92;101702.88;4969947;28;20395;-80
2023/09/07 08:28:54;;;;;;;23.42;13.50;;;;;;;24.23;56.19;101689.31;4967169;28;20046;-80
2023/09/07 08:31:24;;;;;;;28.80;14.45;;;;;;;24.46;55.92;101714.28;4954931;28;20104;-78
2023/09/07 08:33:55;;;;;;;30.67;16.25;;;;;;;24.48;55.99;101708.66;4970725;28;20042;-80
2023/09/07 08:36:23;;;;;;;20.17;10.98;;;;;;;24.46;56.39;101705.31;4971471;28;20064;-79
2023/09/07 08:38:53;;;;;;;22.75;14.55;;;;;;;24.53;56.04;101690.72;4971196;28;20045;-80
2023/09/07 08:41:21;;;;;;;21.33;14.02;;;;;;;24.56;55.70;101685.94;4958691;28;20461;-80
2023/09/07 08:43:52;;;;;;;26.27;11.65;;;;;;;24.31;55.85;101638.41;4968100;28;20365;-81
2023/09/07 08:46:20;;;;;;;14.65;11.95;;;;;;;24.63;55.66;101681.38;4989790;28;20060;-79
2023/09/07 08:48:49;;;;;;;20.15;12.15;;;;;;;24.70;55.81;101695.81;4985465;28;20046;-81
2023/09/07 08:51:18;;;;;;;21.40;12.50;;;;;;;24.45;55.80;101643.91;4981448;28;20531;-80
2023/09/07 08:53:51;;;;;;;20.77;13.10;;;;;;;24.83;55.31;101686.84;4972058;28;20042;-80
2023/09/07 08:56:22;;;;;;;17.98;10.57;;;;;;;24.85;55.91;101687.50;4970976;28;20117;-79
2023/09/07 08:58:53;;;;;;;16.85;13.27;;;;;;;25.00;54.74;101693.59;4967933;28;20070;-78
2023/09/07 09:01:24;;;;;;;15.48;11.90;;;;;;;24.99;54.71;101685.66;4980922;28;20073;-79
2023/09/07 09:03:58;;;;;;;13.50;10.00;;;;;;;24.34;55.38;101595.63;4952368;28;20045;-81
2023/09/07 09:06:33;;;;;;;18.85;10.68;;;;;;;24.79;55.34;101644.88;4935644;28;20489;-80
2023/09/07 09:09:05;;;;;;;19.42;13.25;;;;;;;25.13;54.93;101679.19;4952239;28;20147;-80
2023/09/07 09:11:42;;;;;;;;;;;;;;;25.05;54.77;101682.09;4951054;28;20119;-79
2023/09/07 09:14:08;;;;;;;19.23;11.90;;;;;;;25.23;54.87;101684.25;4963053;28;20389;-79
2023/09/07 09:16:36;;;;;;;15.48;11.35;;;;;;;25.21;54.75;101681.75;4976107;28;20053;-79
2023/09/07 09:19:08;;;;;;;14.70;10.20;;;;;;;25.23;55.01;101671.50;4953757;28;20056;-82
2023/09/07 09:21:35;;;;;;;20.55;12.73;;;;;;;25.06;54.40;101622.13;4973261;28;20061;-79
2023/09/07 09:24:02;;;;;;;16.98;11.30;;;;;;;25.36;54.77;101657.91;4975571;28;20064;-81
2023/09/07 09:26:38;;;;;;;19.15;12.38;;;;;;;25.66;54.79;101686.59;4968813;28;20081;-81
2023/09/07 09:29:09;;;;;;;20.30;10.38;;;;;;;25.32;54.40;101615.91;4964633;28;20042;-81
2023/09/07 09:31:35;;;;;;;15.00;12.48;;;;;;;25.88;54.34;101684.50;4976436;28;20116;-79
2023/09/07 09:34:03;;;;;;;11.23;8.98;;;;;;;25.61;54.13;101616.50;4956578;28;20561;-81
2023/09/07 09:36:40;;;;;;;14.55;10.52;;;;;;;26.12;53.57;101686.53;4964594;28;20049;-82
2023/09/07 09:39:07;;;;;;;13.70;9.73;;;;;;;26.24;53.50;101678.53;4941194;28;20049;-79
2023/09/07 09:41:34;;;;;;;17.77;11.40;;;;;;;26.30;52.99;101668.66;4972827;28;20485;-80
2023/09/07 09:44:03;;;;;;;19.52;10.90;;;;;;;26.27;52.74;101637.28;4968607;28;20057;-80
2023/09/07 09:46:32;;;;;;;22.77;10.73;;;;;;;26.67;52.41;101674.41;4964719;28;20081;-80
2023/09/07 09:49:01;;;;;;;18.88;11.20;;;;;;;26.25;51.91;101575.94;4969333;28;20122;-80
2023/09/07 09:51:31;;;;;;;19.40;11.55;;;;;;;26.74;51.61;101646.06;4966635;28;20070;-80
2023/09/07 09:54:02;;;;;;;15.15;10.77;;;;;;;26.79;51.52;101645.41;4959477;28;20056;-77
2023/09/07 09:56:29;;;;;;;14.90;9.82;;;;;;;26.84;51.41;101623.78;4960862;28;20663;-81
2023/09/07 09:59:06;;;;;;;17.67;9.38;;;;;;;26.98;50.75;101651.78;4956726;28;20056;-79
2023/09/07 10:01:43;;;;;;;17.08;10.75;;;;;;;27.14;49.90;101651.28;4928753;28;20054;-82
2023/09/07 10:04:14;;;;;;;15.90;10.30;;;;;;;27.09;50.36;101626.56;4960592;28;20470;-78
2023/09/07 10:06:55;;;;;;;16.65;10.85;;;;;;;27.47;50.26;101659.19;4968400;28;20401;-77
2023/09/07 10:09:41;;;;;;;10.90;8.57;;;;;;;27.59;49.87;101655.72;4953208;28;20729;-80
2023/09/07 10:12:30;;;;;;;17.38;11.30;;;;;;;27.73;49.52;101651.00;4925171;28;20326;-80
2023/09/07 10:15:06;;;;;;;10.63;9.52;;;;;;;27.68;49.18;101627.94;4947218;28;20058;-79
2023/09/07 10:17:33;;;;;;;13.77;10.48;;;;;;;27.56;48.56;101585.28;4982930;28;20056;-80
2023/09/07 10:20:09;;;;;;;11.40;9.57;;;;;;;27.79;48.10;101588.16;4958266;28;20453;-79
2023/09/07 10:22:48;;;;;;;11.73;9.00;;;;;;;27.83;48.08;101586.69;4970190;28;20046;-78
2023/09/07 10:25:23;;;;;;;14.07;10.05;;;;;;;27.90;48.28;101600.25;4966278;28;20054;-80
2023/09/07 10:27:50;;;;;;;22.83;10.35;;;;;;;28.09;47.94;101614.72;4975209;28;20306;-81
2023/09/07 10:30:23;;;;;;;10.27;9.13;;;;;;;28.37;47.06;101635.16;4956666;28;20625;-79
2023/09/07 10:32:55;;;;;;;13.50;9.48;;;;;;;28.41;47.29;101614.53;4964718;28;20045;-78
2023/09/07 10:35:25;;;;;;;12.93;8.73;;;;;;;28.55;47.07;101636.00;4955053;28;20049;-79
2023/09/07 10:38:01;;;;;;;13.68;10.52;;;;;;;28.36;47.03;101592.56;4965178;28;20413;-79
2023/09/07 10:40:35;;;;;;;11.70;8.65;;;;;;;28.51;46.73;101591.09;4972404;28;20065;-81
2023/09/07 10:43:08;;;;;;;14.80;9.75;;;;;;;28.23;46.59;101586.22;4963664;28;20145;-79
2023/09/07 10:45:37;;;;;;;13.35;9.60;;;;;;;28.65;46.38;101608.13;4949316;28;20652;-78
2023/09/07 10:48:05;;;;;;;11.38;8.98;;;;;;;28.62;46.94;101614.06;4949165;28;20366;-79
2023/09/07 10:50:45;;;;;;;14.77;10.02;;;;;;;28.58;46.09;101599.19;4955244;28;20482;-78
2023/09/07 10:53:14;;;;;;;14.02;9.82;;;;;;;28.85;46.14;101612.47;4965705;28;20581;-79
2023/09/07 10:55:44;;;;;;;11.38;9.23;;;;;;;28.99;45.55;101611.19;4964786;28;20571;-80
2023/09/07 10:58:11;;;;;;;11.02;8.10;;;;;;;28.63;46.11;101572.00;4971797;28;20382;-81
2023/09/07 11:00:38;;;;;;;16.15;9.55;;;;;;;28.93;45.97;101614.84;4966234;28;20046;-80
2023/09/07 11:03:13;;;;;;;14.43;9.43;;;;;;;28.84;45.33;101606.16;4964350;28;20037;-79
2023/09/07 11:05:43;;;;;;;10.77;8.75;;;;;;;28.71;45.38;101590.78;4956417;28;20053;-80
2023/09/07 11:08:10;;;;;;;9.52;8.30;;;;;;;28.95;45.41;101585.38;4968370;28;20542;-79
2023/09/07 11:10:43;;;;;;;11.77;8.52;;;;;;;28.86;45.53;101564.91;4966377;28;20066;-78
2023/09/07 11:13:12;;;;;;;15.23;8.95;;;;;;;28.50;45.13;101496.56;4975129;28;20412;-79
2023/09/07 11:15:39;;;;;;;16.80;9.20;;;;;;;28.90;44.72;101558.75;4964209;28;20272;-79
2023/09/07 11:18:10;;;;;;;15.93;9.15;;;;;;;29.10;45.12;101579.47;4971742;28;20042;-81
2023/09/07 11:20:41;;;;;;;15.38;9.85;;;;;;;29.16;42.84;101543.00;4969204;28;20072;-80
2023/09/07 11:23:14;;;;;;;11.57;8.95;;;;;;;29.18;43.18;101540.88;4945156;28;20512;-80
2023/09/07 11:25:52;;;;;;;12.32;8.75;;;;;;;29.42;43.48;101557.25;4950830;28;20050;-81
2023/09/07 11:28:29;;;;;;;9.27;8.05;;;;;;;29.50;43.69;101562.38;4935407;28;20140;-80